Time;durP1;ratioP1;P1;durP2;ratioP2;P2;SDS_P1;SDS_P2;PMS_P1;PMS_P2;Temp;Humidity;BMP_temperature;BMP_pressure;BME280_temperature;BME280_humidity;BME280_pressure;Samples;Min_cycle;Max_cycle;Signal;HPM_P1;HPM_P2
2022/05/12 00:00:22;;;;;;;20.73;10.80;;;;;;;20.90;48.98;100451.13;5345643;32;43529;-77
2022/05/12 00:03:25;;;;;;;20.83;11.18;;;;;;;20.48;50.35;100456.28;5361883;32;34915;-77
2022/05/12 00:06:27;;;;;;;;;;;;;;;21.25;48.39;100456.28;5339845;32;34615;-77
2022/05/12 00:09:29;;;;;;;17.77;9.60;;;;;;;21.55;47.91;100454.72;5363348;32;34651;-76
2022/05/12 00:12:32;;;;;;;15.80;10.48;;;;;;;21.03;49.14;100459.84;5317412;32;33888;-78
2022/05/12 00:15:35;;;;;;;18.92;10.82;;;;;;;21.15;49.26;100457.16;5347081;32;35530;-76
2022/05/12 00:18:37;;;;;;;17.37;10.48;;;;;;;21.47;48.23;100451.84;5362943;32;35023;-78
2022/05/12 00:21:40;;;;;;;16.33;9.85;;;;;;;21.76;47.50;100455.56;5326816;32;35376;-76
2022/05/12 00:24:42;;;;;;;14.65;9.88;;;;;;;21.49;48.16;100441.84;5347829;32;35213;-77
2022/05/12 00:27:44;;;;;;;15.75;9.90;;;;;;;20.94;49.48;100441.91;5345352;32;34775;-76
2022/05/12 00:30:52;;;;;;;16.20;9.80;;;;;;;19.93;52.62;100447.22;5359538;32;34620;-75
2022/05/12 00:33:55;;;;;;;16.87;9.98;;;;;;;21.02;49.57;100438.59;5350033;32;44682;-77
2022/05/12 00:36:57;;;;;;;15.05;9.55;;;;;;;20.72;50.26;100439.25;5343353;32;34660;-77
2022/05/12 00:39:59;;;;;;;14.27;9.20;;;;;;;20.02;52.42;100445.66;5360589;32;34060;-76
2022/05/12 00:43:07;;;;;;;19.30;10.23;;;;;;;21.44;48.57;100431.53;5346881;32;34440;-76
2022/05/12 00:46:23;;;;;;;18.25;10.45;;;;;;;21.18;49.10;100433.69;5358601;32;34452;-76
2022/05/12 00:49:29;;;;;;;21.23;10.35;;;;;;;19.95;52.56;100445.28;5349025;32;42914;-78
2022/05/12 00:52:32;;;;;;;18.60;11.02;;;;;;;19.79;53.66;100442.09;5349260;32;35400;-75
2022/05/12 00:55:37;;;;;;;19.23;9.88;;;;;;;20.84;50.55;100446.28;5354222;32;35616;-76
2022/05/12 00:58:40;;;;;;;18.45;10.15;;;;;;;19.37;54.94;100446.16;5344973;32;34939;-77
2022/05/12 01:01:42;;;;;;;16.12;9.75;;;;;;;20.25;52.66;100446.53;5356523;32;34308;-77
2022/05/12 01:04:47;;;;;;;14.55;9.23;;;;;;;20.24;52.30;100453.69;5339811;32;35261;-76
2022/05/12 01:07:51;;;;;;;18.98;9.57;;;;;;;19.98;53.16;100445.06;5358098;32;47168;-76
2022/05/12 01:10:57;;;;;;;17.80;9.68;;;;;;;19.63;54.31;100441.56;5337821;32;34994;-76
2022/05/12 01:14:04;;;;;;;18.70;10.27;;;;;;;20.16;52.84;100447.28;5332240;32;36446;-76
2022/05/12 01:17:07;;;;;;;16.37;10.30;;;;;;;19.66;54.33;100442.19;5361356;32;34502;-77
2022/05/12 01:20:11;;;;;;;15.13;10.30;;;;;;;20.52;52.13;100441.72;5340649;32;34556;-77
2022/05/12 01:23:44;;;;;;;14.93;9.82;;;;;;;19.99;53.12;100441.41;5352412;32;35234;-75
2022/05/12 01:26:46;;;;;;;15.25;10.70;;;;;;;20.23;52.76;100446.66;5341220;32;35744;-76
2022/05/12 01:29:54;;;;;;;16.08;10.35;;;;;;;20.45;52.18;100456.53;5347067;32;46696;-75
2022/05/12 01:32:56;;;;;;;17.70;10.73;;;;;;;20.81;50.86;100441.22;5362981;32;33189;-76
2022/05/12 01:35:58;;;;;;;15.82;9.77;;;;;;;20.25;52.38;100450.06;5345481;32;34725;-76
2022/05/12 01:39:00;;;;;;;15.73;10.48;;;;;;;20.36;52.17;100441.22;5360609;32;34740;-77
2022/05/12 01:42:04;;;;;;;16.42;10.48;;;;;;;20.61;51.30;100441.94;5345475;32;34733;-76
2022/05/12 01:45:07;;;;;;;17.80;10.50;;;;;;;20.34;52.07;100443.13;5360582;32;34885;-75
2022/05/12 01:48:12;;;;;;;16.27;11.07;;;;;;;20.36;52.23;100445.69;5330569;32;34457;-76
2022/05/12 01:51:14;;;;;;;15.48;10.13;;;;;;;20.15;52.83;100453.56;5333321;32;35502;-76
2022/05/12 01:54:16;;;;;;;16.65;10.75;;;;;;;20.31;52.11;100448.72;5363409;32;35435;-77
2022/05/12 01:57:18;;;;;;;17.02;10.80;;;;;;;19.63;53.93;100445.06;5342176;32;35247;-76
2022/05/12 02:00:24;;;;;;;17.92;10.60;;;;;;;19.20;55.79;100450.09;5357991;32;46911;-76
2022/05/12 02:03:26;;;;;;;15.18;10.43;;;;;;;20.00;53.35;100448.44;5345576;32;35801;-77
2022/05/12 02:06:28;;;;;;;19.45;10.65;;;;;;;19.49;54.75;100446.09;5348483;32;34181;-77
2022/05/12 02:09:30;;;;;;;17.98;10.07;;;;;;;19.89;53.53;100444.91;5352437;32;34835;-78
2022/05/12 02:12:32;;;;;;;17.45;10.48;;;;;;;19.87;53.43;100433.50;5320018;32;34639;-77
2022/05/12 02:15:36;;;;;;;17.75;10.05;;;;;;;19.71;53.78;100441.84;5360376;32;37161;-76
2022/05/12 02:18:39;;;;;;;18.25;10.45;;;;;;;20.46;51.79;100426.19;5347474;32;35395;-76
2022/05/12 02:21:41;;;;;;;16.83;10.63;;;;;;;20.08;52.68;100425.66;5355208;32;35042;-77
2022/05/12 02:24:44;;;;;;;16.92;11.30;;;;;;;20.48;51.20;100418.03;5328999;32;35340;-76
2022/05/12 02:27:46;;;;;;;21.35;10.25;;;;;;;20.21;51.74;100418.38;5350559;32;34038;-77
2022/05/12 02:30:49;;;;;;;15.48;10.68;;;;;;;19.60;53.95;100423.16;5351848;32;46466;-76
2022/05/12 02:33:51;;;;;;;18.35;10.65;;;;;;;18.93;55.67;100415.66;5346457;32;47853;-78
2022/05/12 02:37:03;;;;;;;17.35;11.05;;;;;;;19.27;54.92;100423.84;5359389;32;35053;-76
2022/05/12 02:40:07;;;;;;;14.30;9.80;;;;;;;19.88;52.26;100425.38;5335165;32;34693;-77
2022/05/12 02:43:24;;;;;;;17.00;10.35;;;;;;;20.01;52.13;100433.28;5337942;32;36577;-76
2022/05/12 02:46:27;;;;;;;15.00;9.82;;;;;;;19.29;54.24;100430.75;5332437;32;47014;-76
2022/05/12 02:49:29;;;;;;;14.80;10.23;;;;;;;19.94;52.22;100432.06;5347891;32;34605;-76
2022/05/12 02:52:31;;;;;;;18.37;10.57;;;;;;;19.88;52.10;100433.37;5358911;32;34534;-76
2022/05/12 02:55:33;;;;;;;14.90;9.73;;;;;;;19.83;52.30;100430.22;5346551;32;34896;-76
2022/05/12 02:58:36;;;;;;;15.18;9.90;;;;;;;20.02;51.58;100434.97;5360847;32;35401;-77
2022/05/12 03:01:39;;;;;;;15.45;9.85;;;;;;;19.30;53.69;100434.25;5323798;32;35509;-76
2022/05/12 03:04:41;;;;;;;18.98;10.30;;;;;;;18.73;55.51;100435.75;5351657;32;35485;-77
2022/05/12 03:07:43;;;;;;;17.90;10.70;;;;;;;18.61;55.99;100439.25;5343058;32;35063;-75
2022/05/12 03:10:48;;;;;;;16.37;10.30;;;;;;;18.90;55.37;100442.53;5338492;32;35043;-77
2022/05/12 03:13:51;;;;;;;16.48;10.35;;;;;;;18.76;55.58;100446.19;5342007;32;43900;-76
2022/05/12 03:16:53;;;;;;;24.63;13.43;;;;;;;18.07;57.85;100456.34;5343995;32;34746;-78
2022/05/12 03:19:56;;;;;;;18.35;10.23;;;;;;;18.38;56.71;100447.09;5357571;32;36593;-76
2022/05/12 03:22:59;;;;;;;15.80;10.40;;;;;;;18.32;57.29;100458.16;5336919;32;34985;-77
2022/05/12 03:26:01;;;;;;;16.10;10.25;;;;;;;18.82;55.16;100452.91;5344297;32;34921;-76
2022/05/12 03:29:03;;;;;;;16.40;10.40;;;;;;;18.70;55.63;100456.44;5349097;32;34902;-76
2022/05/12 03:32:10;;;;;;;16.45;10.15;;;;;;;18.01;57.93;100466.56;5341502;32;34834;-76
2022/05/12 03:35:12;;;;;;;16.60;10.18;;;;;;;18.71;55.44;100464.31;5350528;32;33827;-77
2022/05/12 03:38:15;;;;;;;15.63;9.90;;;;;;;18.86;54.91;100446.38;5332497;32;34924;-76
2022/05/12 03:41:17;;;;;;;17.67;10.00;;;;;;;18.87;55.04;100459.59;5358400;32;35587;-76
2022/05/12 03:47:44;;;;;;;19.77;10.23;;;;;;;19.49;53.08;100461.22;5345670;32;34635;-77
2022/05/12 03:50:46;;;;;;;19.95;10.52;;;;;;;19.17;53.47;100455.62;5360959;32;34853;-76
2022/05/12 03:53:49;;;;;;;16.08;10.77;;;;;;;19.24;53.50;100462.22;5349163;32;46878;-76
2022/05/12 03:56:51;;;;;;;19.30;10.90;;;;;;;19.00;54.06;100454.22;5358786;32;35098;-76
2022/05/12 03:59:54;;;;;;;20.02;10.90;;;;;;;18.91;54.58;100458.38;5349433;32;35027;-76
2022/05/12 04:02:57;;;;;;;17.80;10.82;;;;;;;18.71;55.38;100460.81;5358522;32;36358;-75
2022/05/12 04:06:01;;;;;;;19.45;10.68;;;;;;;19.30;53.54;100452.91;5341486;32;34652;-76
2022/05/12 04:09:04;;;;;;;15.00;10.13;;;;;;;19.11;53.79;100462.25;5339545;32;34620;-75
2022/05/12 04:12:09;;;;;;;15.38;11.02;;;;;;;19.12;54.00;100469.28;5338590;32;34383;-78
2022/05/12 04:15:11;;;;;;;16.37;11.07;;;;;;;19.85;51.66;100472.78;5329701;32;35104;-76
2022/05/12 04:18:15;;;;;;;18.58;11.15;;;;;;;19.10;53.81;100468.56;5348457;32;34776;-77
2022/05/12 04:21:17;;;;;;;19.05;11.12;;;;;;;19.23;53.44;100465.00;5343641;32;35188;-76
2022/05/12 04:24:19;;;;;;;22.37;12.37;;;;;;;18.84;54.47;100475.78;5345243;32;45246;-77
2022/05/12 04:27:21;;;;;;;19.87;12.00;;;;;;;18.94;54.66;100476.81;5348217;32;35259;-76
2022/05/12 04:30:25;;;;;;;18.98;11.57;;;;;;;19.44;52.87;100474.91;5346959;32;35377;-77
2022/05/12 04:36:48;;;;;;;18.23;12.00;;;;;;;19.89;51.43;100479.56;5343979;32;34142;-76
2022/05/12 04:39:50;;;;;;;20.50;11.63;;;;;;;20.24;50.77;100479.53;5362337;32;44405;-77
2022/05/12 04:42:54;;;;;;;20.65;11.77;;;;;;;21.25;47.71;100482.13;5346013;32;34756;-77
2022/05/12 04:45:56;;;;;;;18.92;10.82;;;;;;;21.84;46.10;100485.22;5332583;32;34882;-76
2022/05/12 04:48:58;;;;;;;16.90;10.27;;;;;;;22.85;43.53;100478.28;5362696;32;35333;-76
2022/05/12 04:52:02;;;;;;;16.60;11.05;;;;;;;23.18;42.63;100477.97;5343310;32;35259;-76
2022/05/12 04:55:05;;;;;;;14.95;9.48;;;;;;;22.77;43.20;100488.84;5361356;32;34254;-77
2022/05/12 04:58:07;;;;;;;18.73;10.20;;;;;;;23.29;42.53;100484.19;5346692;32;34009;-76
2022/05/12 05:01:09;;;;;;;21.12;10.45;;;;;;;23.19;42.45;100485.03;5358038;32;34878;-78
2022/05/12 05:04:12;;;;;;;16.98;9.95;;;;;;;23.66;41.12;100485.22;5343411;32;34542;-81
2022/05/12 05:07:14;;;;;;;18.60;10.13;;;;;;;24.38;39.45;100489.22;5339505;32;34361;-78
2022/05/12 05:10:16;;;;;;;20.25;9.20;;;;;;;24.73;37.98;100493.91;5353954;32;34270;-86
2022/05/12 05:13:19;;;;;;;14.87;8.55;;;;;;;24.45;38.99;100497.56;5326612;32;34436;-83
2022/05/12 05:16:22;;;;;;;18.17;8.70;;;;;;;24.80;38.36;100489.62;5360097;32;46394;-90
2022/05/12 05:19:25;;;;;;;16.20;9.30;;;;;;;24.68;38.68;100495.34;5346143;32;34101;-78
2022/05/12 05:22:27;;;;;;;15.40;8.65;;;;;;;24.67;38.46;100489.13;5354468;32;33642;-76
2022/05/12 05:25:31;;;;;;;16.27;9.07;;;;;;;24.32;39.42;100489.78;5334230;32;35364;-84
2022/05/12 05:28:33;;;;;;;16.37;8.75;;;;;;;24.99;37.95;100493.19;5347071;32;34802;-73
2022/05/12 05:31:38;;;;;;;16.08;8.63;;;;;;;23.81;40.32;100487.47;5353491;32;35470;-72
2022/05/12 05:34:40;;;;;;;15.93;8.63;;;;;;;23.55;40.51;100485.34;5349507;32;35170;-73
2022/05/12 05:37:43;;;;;;;;;;;;;;;23.77;40.09;100495.00;5355316;32;34106;-73
2022/05/12 05:40:45;;;;;;;16.58;8.73;;;;;;;24.64;38.08;100486.72;5331045;32;35074;-81
2022/05/12 05:43:48;;;;;;;15.45;9.07;;;;;;;26.16;35.19;100488.63;5346854;32;35542;-87
2022/05/12 05:46:50;;;;;;;15.95;8.82;;;;;;;25.23;37.43;100495.34;5335361;32;44675;-73
2022/05/12 05:49:52;;;;;;;;;;;;;;;24.98;37.70;100491.50;5336397;32;35300;-86
2022/05/12 05:56:17;;;;;;;16.48;9.13;;;;;;;27.43;33.72;100484.13;5325714;32;35368;-78
2022/05/12 05:59:19;;;;;;;16.20;8.80;;;;;;;25.91;36.84;100491.16;5333340;32;44364;-79
2022/05/12 06:02:22;;;;;;;13.65;7.28;;;;;;;26.42;35.38;100497.59;5333842;32;34152;-77
2022/05/12 06:05:25;;;;;;;17.12;9.40;;;;;;;28.24;31.99;100490.56;5331962;32;34676;-74
2022/05/12 06:08:28;;;;;;;14.75;9.15;;;;;;;29.07;30.77;100498.28;5343625;32;34952;-78
2022/05/12 06:11:32;;;;;;;16.23;8.88;;;;;;;26.36;35.47;100500.03;5309980;32;34237;-77
2022/05/12 06:14:34;;;;;;;16.37;8.98;;;;;;;27.23;34.02;100494.37;5339894;32;34198;-85
2022/05/12 06:17:36;;;;;;;15.13;8.82;;;;;;;25.86;36.53;100498.00;5332139;32;34624;-81
2022/05/12 06:20:41;;;;;;;20.60;8.20;;;;;;;26.11;35.93;100507.13;5333414;32;35177;-75
2022/05/12 06:23:43;;;;;;;13.20;8.52;;;;;;;28.45;31.68;100499.00;5336630;32;33960;-77
2022/05/12 06:26:46;;;;;;;15.80;7.80;;;;;;;27.23;34.00;100502.50;5335822;32;34668;-81
2022/05/12 06:29:50;;;;;;;12.18;8.05;;;;;;;27.00;34.33;100504.94;5346410;32;46156;-75
2022/05/12 06:32:56;;;;;;;13.23;7.68;;;;;;;28.70;31.09;100493.50;5337103;32;32265;-76
2022/05/12 06:36:03;;;;;;;20.98;12.25;;;;;;;29.07;30.45;100499.13;5347112;32;34055;-73
2022/05/12 06:39:06;;;;;;;16.15;7.60;;;;;;;27.64;33.33;100497.16;5336042;32;34063;-75
2022/05/12 06:42:08;;;;;;;12.27;7.37;;;;;;;29.10;30.71;100493.34;5346695;32;34152;-87
2022/05/12 06:45:15;;;;;;;16.55;7.45;;;;;;;28.37;32.19;100499.03;5356706;32;34317;-77
2022/05/12 06:48:20;;;;;;;12.15;8.07;;;;;;;28.51;31.94;100497.47;5346553;32;34827;-82
2022/05/12 06:51:23;;;;;;;15.52;8.10;;;;;;;29.82;29.19;100484.94;5356439;32;44435;-71
2022/05/12 06:54:25;;;;;;;13.13;7.30;;;;;;;27.85;33.04;100498.56;5344446;32;34016;-75
2022/05/12 06:57:27;;;;;;;11.75;6.90;;;;;;;29.32;30.12;100490.88;5350292;32;33853;-76
2022/05/12 07:00:29;;;;;;;13.62;7.22;;;;;;;28.78;30.89;100497.03;5345911;32;35599;-73
2022/05/12 07:03:32;;;;;;;15.52;8.10;;;;;;;28.12;32.16;100502.75;5338989;32;33725;-72
2022/05/12 07:06:34;;;;;;;14.02;7.78;;;;;;;27.33;33.45;100498.81;5344554;32;34454;-75
2022/05/12 07:09:37;;;;;;;;;;;;;;;27.35;33.86;100504.87;5336167;32;34277;-73
2022/05/12 07:12:41;;;;;;;14.38;8.00;;;;;;;28.40;31.75;100506.78;5330595;32;36395;-75
2022/05/12 07:15:44;;;;;;;12.18;7.62;;;;;;;28.19;32.44;100506.44;5326214;32;33221;-78
2022/05/12 07:18:46;;;;;;;13.62;7.60;;;;;;;27.32;34.04;100507.94;5353513;32;36442;-76
2022/05/12 07:28:33;;;;;;;14.95;7.37;;;;;;;28.52;32.28;100494.56;5356716;32;35191;-74
2022/05/12 07:31:36;;;;;;;12.82;7.32;;;;;;;29.58;30.33;100488.69;5335575;32;33752;-75
2022/05/12 07:34:40;;;;;;;13.23;7.60;;;;;;;29.14;31.17;100494.69;5362685;32;34110;-75
2022/05/12 07:37:42;;;;;;;12.35;7.70;;;;;;;29.16;31.04;100493.66;5344291;32;35325;-71
2022/05/12 07:40:44;;;;;;;14.35;7.37;;;;;;;31.48;27.44;100487.25;5344939;32;34268;-73
2022/05/12 07:43:47;;;;;;;11.57;7.70;;;;;;;29.68;30.00;100483.84;5344848;32;34366;-79
2022/05/12 07:46:49;;;;;;;13.40;7.75;;;;;;;29.04;31.15;100491.34;5326175;32;46709;-80
2022/05/12 07:49:51;;;;;;;12.55;7.93;;;;;;;29.85;30.03;100489.16;5340179;32;36479;-75
2022/05/12 07:52:55;;;;;;;10.60;7.03;;;;;;;30.37;28.78;100486.44;5336492;32;34114;-76
2022/05/12 07:55:58;;;;;;;12.10;7.18;;;;;;;31.15;27.73;100486.88;5341918;32;34848;-80
2022/05/12 07:59:04;;;;;;;11.55;7.07;;;;;;;30.50;28.68;100483.09;5335155;32;34162;-82
2022/05/12 08:02:06;;;;;;;11.77;6.95;;;;;;;29.15;31.04;100482.00;5336627;32;34124;-76
2022/05/12 08:05:09;;;;;;;15.95;7.60;;;;;;;31.52;27.53;100474.97;5343979;32;34133;-78
2022/05/12 08:08:12;;;;;;;14.07;6.82;;;;;;;31.80;26.99;100480.47;5337847;32;35495;-79
2022/05/12 08:11:15;;;;;;;11.65;7.07;;;;;;;30.19;29.09;100489.50;5338558;32;34459;-83
2022/05/12 08:14:17;;;;;;;11.68;6.62;;;;;;;30.17;29.23;100488.88;5338331;32;35858;-82
2022/05/12 08:17:19;;;;;;;13.43;6.70;;;;;;;30.51;28.49;100484.78;5353793;32;44435;-78
2022/05/12 08:20:22;;;;;;;10.95;6.82;;;;;;;30.36;28.68;100498.34;5339950;32;35366;-81
2022/05/12 08:23:25;;;;;;;15.35;7.75;;;;;;;30.74;28.01;100490.12;5336592;32;34181;-84
2022/05/12 08:26:27;;;;;;;16.83;7.05;;;;;;;31.51;27.26;100476.84;5389742;27;35560;-95
2022/05/12 08:29:31;;;;;;;9.30;6.20;;;;;;;32.80;25.25;100479.28;5366645;32;34635;-95
2022/05/12 08:32:34;;;;;;;11.57;6.70;;;;;;;32.08;25.68;100475.06;5396332;32;34935;-95
2022/05/12 08:35:38;;;;;;;16.00;6.32;;;;;;;31.77;26.33;100478.97;5359294;32;35033;-91
2022/05/12 08:38:43;;;;;;;13.57;6.18;;;;;;;31.06;27.49;100488.03;5382544;32;34319;-94
2022/05/12 08:41:55;;;;;;;15.43;6.55;;;;;;;31.11;27.36;100489.13;5375332;32;34437;-94
2022/05/12 08:44:59;;;;;;;11.05;6.00;;;;;;;31.38;26.88;100481.31;5373173;32;45018;-94
2022/05/12 08:48:01;;;;;;;10.05;5.70;;;;;;;33.50;24.14;100482.69;5431743;27;34722;-67
2022/05/12 08:51:04;;;;;;;8.77;5.57;;;;;;;32.00;25.89;100488.78;5369887;32;34004;-68
2022/05/12 08:54:12;;;;;;;10.93;5.55;;;;;;;33.42;23.88;100481.81;5382317;32;34142;-69
2022/05/12 08:57:26;;;;;;;10.65;5.85;;;;;;;35.25;22.03;100481.97;5362273;32;35410;-69
2022/05/12 09:00:33;;;;;;;11.05;5.35;;;;;;;35.86;20.91;100477.78;5384073;32;44748;-70
2022/05/12 09:03:51;;;;;;;12.70;5.40;;;;;;;34.25;22.75;100478.72;5376760;32;34184;-65
2022/05/12 09:07:10;;;;;;;10.88;5.55;;;;;;;33.45;23.84;100474.28;5380640;32;44468;-67
2022/05/12 09:10:42;;;;;;;12.77;5.55;;;;;;;33.20;24.28;100474.00;5377962;32;34193;-66
2022/05/12 09:13:50;;;;;;;8.45;5.28;;;;;;;33.32;24.24;100475.91;5352932;32;34161;-70
2022/05/12 09:16:53;;;;;;;10.95;5.05;;;;;;;34.23;22.75;100478.09;5384207;32;44596;-66
2022/05/12 09:19:55;;;;;;;12.43;5.53;;;;;;;34.33;22.71;100483.97;5391031;32;34227;-68
2022/05/12 09:22:59;;;;;;;10.23;5.28;;;;;;;34.72;22.25;100484.94;5360926;32;35252;-81
2022/05/12 09:26:30;;;;;;;13.52;5.22;;;;;;;34.08;23.36;100478.34;5358433;32;35512;-69
2022/05/12 09:29:42;;;;;;;11.35;5.10;;;;;;;34.60;22.88;100479.31;5360698;32;35869;-73
2022/05/12 09:32:57;;;;;;;9.23;5.25;;;;;;;34.10;23.43;100484.41;5369011;32;34289;-70
2022/05/12 09:36:03;;;;;;;12.20;5.40;;;;;;;32.45;25.29;100476.56;5389455;32;32732;-71
2022/05/12 09:39:05;;;;;;;11.25;5.65;;;;;;;31.94;26.37;100484.97;5371155;32;34077;-71
2022/05/12 09:42:16;;;;;;;12.20;5.75;;;;;;;32.49;25.98;100480.59;5380929;32;34249;-68
2022/05/12 09:45:36;;;;;;;12.57;5.28;;;;;;;33.67;24.33;100475.78;5367340;32;45178;-74
2022/05/12 09:48:40;;;;;;;12.60;5.70;;;;;;;34.46;23.27;100473.06;5355783;32;35326;-75
2022/05/12 09:51:43;;;;;;;10.20;4.97;;;;;;;35.40;22.24;100478.94;5376633;32;34141;-80
2022/05/12 09:54:45;;;;;;;14.00;5.70;;;;;;;35.68;21.74;100465.72;5359124;32;34724;-72
2022/05/12 09:58:22;;;;;;;10.40;4.95;;;;;;;35.75;21.55;100471.16;5385184;32;33984;-69
2022/05/12 10:01:24;;;;;;;10.27;5.25;;;;;;;35.66;21.77;100462.38;5385208;32;35373;-70
2022/05/12 10:08:16;;;;;;;12.85;4.70;;;;;;;36.21;21.10;100458.97;5386930;32;34086;-69
2022/05/12 10:11:19;;;;;;;11.57;4.95;;;;;;;36.00;21.44;100450.13;5364417;32;37164;-70
2022/05/12 10:14:33;;;;;;;9.55;4.60;;;;;;;36.58;20.89;100449.75;5367557;32;34322;-76
2022/05/12 10:17:37;;;;;;;12.75;5.00;;;;;;;37.53;19.59;100424.41;5387600;32;35678;-73
2022/05/12 10:20:44;;;;;;;13.98;4.70;;;;;;;36.08;21.56;100436.16;5362575;32;33942;-67
2022/05/12 10:24:01;;;;;;;11.68;5.20;;;;;;;37.25;19.93;100438.75;5387314;32;34278;-73
2022/05/12 10:27:14;;;;;;;12.02;5.10;;;;;;;38.52;18.51;100432.78;5373939;32;35527;-72
2022/05/12 10:30:19;;;;;;;11.98;4.50;;;;;;;36.77;20.38;100431.34;5365921;32;34242;-72
2022/05/12 10:33:44;;;;;;;10.35;5.22;;;;;;;36.74;20.10;100433.75;5359742;32;44330;-75
2022/05/12 10:37:12;;;;;;;8.43;4.30;;;;;;;35.95;21.30;100427.25;5372108;32;34072;-81
2022/05/12 10:40:26;;;;;;;12.18;4.93;;;;;;;37.53;19.29;100415.34;5384393;32;35434;-72
2022/05/12 10:43:38;;;;;;;10.77;4.18;;;;;;;38.09;18.61;100412.03;5374595;32;150802;-72
2022/05/12 10:47:07;;;;;;;9.25;4.40;;;;;;;40.11;16.40;100417.22;5379685;32;32825;-72
2022/05/12 10:50:28;;;;;;;6.90;4.40;;;;;;;39.92;16.37;100414.72;5352109;32;35469;-70
2022/05/12 10:53:49;;;;;;;;;;;;;;;39.24;16.95;100411.13;5374904;32;36197;-75
2022/05/12 10:57:16;;;;;;;12.60;4.30;;;;;;;39.05;17.04;100425.31;5361468;32;44319;-63
2022/05/12 11:00:36;;;;;;;10.48;4.32;;;;;;;38.55;17.46;100412.22;5386059;32;34141;-64
2022/05/12 11:04:06;;;;;;;8.38;3.58;;;;;;;38.02;18.28;100416.84;5374477;32;34665;-63
2022/05/12 11:07:14;;;;;;;10.93;4.20;;;;;;;40.90;15.44;100414.09;5372559;32;35317;-64
2022/05/12 11:10:29;;;;;;;7.95;4.12;;;;;;;38.51;17.88;100414.59;5391167;32;46658;-63
2022/05/12 11:13:58;;;;;;;14.25;4.80;;;;;;;37.72;18.77;100416.06;5349294;32;34564;-69
2022/05/12 11:17:10;;;;;;;8.00;4.00;;;;;;;38.79;18.09;100404.78;5379354;32;34530;-65
2022/05/12 11:20:18;;;;;;;10.38;4.18;;;;;;;38.42;17.89;100400.44;5360081;32;35340;-66
2022/05/12 11:23:32;;;;;;;24.45;5.00;;;;;;;40.23;15.94;100393.16;5383295;32;46167;-68
2022/05/12 11:26:44;;;;;;;8.98;3.85;;;;;;;40.73;15.36;100390.22;5378858;32;35209;-82
2022/05/12 11:29:59;;;;;;;9.65;3.78;;;;;;;41.02;15.25;100395.50;5382351;32;34072;-69
2022/05/12 11:33:02;;;;;;;10.60;4.05;;;;;;;41.61;14.44;100388.03;5377947;32;37152;-86
2022/05/12 11:36:08;;;;;;;9.38;4.35;;;;;;;38.57;17.36;100393.59;5409114;32;34517;-86
2022/05/12 11:39:40;;;;;;;10.40;4.18;;;;;;;41.48;14.77;100368.34;5397809;32;35461;-86
2022/05/12 11:46:44;;;;;;;10.63;3.50;;;;;;;42.60;13.71;100360.72;5382393;32;33739;-73
2022/05/12 11:50:21;;;;;;;7.90;3.55;;;;;;;43.23;12.61;100361.38;5378181;32;34031;-73
2022/05/12 11:53:50;;;;;;;8.73;3.40;;;;;;;40.42;14.50;100369.72;5368668;32;34665;-70
2022/05/12 11:56:57;;;;;;;8.48;3.42;;;;;;;41.00;14.11;100368.19;5378634;32;44528;-73
2022/05/12 12:00:01;;;;;;;9.95;3.60;;;;;;;39.12;15.81;100374.62;5396522;32;35226;-67
2022/05/12 12:03:18;;;;;;;9.45;4.35;;;;;;;39.06;15.97;100367.38;5369990;32;34938;-84
2022/05/12 12:06:44;;;;;;;8.52;3.20;;;;;;;43.07;12.12;100363.28;5390175;32;43844;-80
2022/05/12 12:09:46;;;;;;;6.62;3.40;;;;;;;42.77;12.33;100366.84;5373113;32;34529;-74
2022/05/12 12:13:04;;;;;;;6.53;3.10;;;;;;;43.78;11.57;100354.16;5352101;32;34255;-82
2022/05/12 12:16:13;;;;;;;11.20;2.87;;;;;;;39.56;14.43;100361.06;5373702;32;35399;-73
2022/05/12 12:19:43;;;;;;;9.45;3.55;;;;;;;40.10;13.72;100350.34;5363598;32;31971;-70
2022/05/12 12:22:50;;;;;;;8.20;3.23;;;;;;;40.57;13.67;100347.88;5368006;32;35637;-74
2022/05/12 12:26:03;;;;;;;7.22;3.10;;;;;;;39.08;15.13;100342.37;5373471;32;44701;-67
2022/05/12 12:29:08;;;;;;;9.73;3.15;;;;;;;37.42;14.77;100356.72;5372916;32;33984;-74
2022/05/12 12:32:32;;;;;;;7.03;3.05;;;;;;;37.03;15.49;100350.75;5383655;32;35645;-64
2022/05/12 12:35:54;;;;;;;6.07;2.90;;;;;;;35.26;16.78;100360.72;5382177;32;34583;-71
2022/05/12 12:38:57;;;;;;;;;;;;;;;35.44;15.33;100355.34;5382985;32;44450;-73
2022/05/12 12:42:20;;;;;;;5.22;2.60;;;;;;;34.44;15.93;100355.09;5390724;32;36384;-71
2022/05/12 12:45:24;;;;;;;9.70;3.35;;;;;;;32.82;17.71;100354.72;5377794;32;44382;-69
2022/05/12 12:48:33;;;;;;;10.85;3.10;;;;;;;33.97;17.29;100347.25;5380216;32;34625;-70
2022/05/12 12:51:40;;;;;;;8.00;3.10;;;;;;;33.68;18.26;100347.50;5388130;32;35477;-77
2022/05/12 12:58:03;;;;;;;8.82;3.20;;;;;;;33.69;18.67;100340.16;5369170;32;34085;-72
2022/05/12 13:01:20;;;;;;;10.63;3.28;;;;;;;33.28;18.80;100332.19;5362775;32;35262;-71
2022/05/12 13:04:25;;;;;;;11.12;3.55;;;;;;;33.02;19.50;100330.28;5349886;32;44407;-81
2022/05/12 13:07:30;;;;;;;3.92;2.80;;;;;;;33.53;19.11;100338.69;5355375;32;33868;-69
2022/05/12 13:10:44;;;;;;;8.10;3.50;;;;;;;33.79;19.23;100328.81;5361218;32;34090;-75
2022/05/12 13:13:48;;;;;;;7.10;2.90;;;;;;;34.16;18.38;100336.28;5360726;32;37545;-80
2022/05/12 13:16:51;;;;;;;7.05;3.15;;;;;;;34.05;17.66;100334.22;5376195;32;44663;-74
2022/05/12 13:20:00;;;;;;;8.20;3.30;;;;;;;33.42;18.83;100332.00;5370928;32;34217;-73
2022/05/12 13:23:08;;;;;;;6.62;3.20;;;;;;;33.78;18.77;100324.41;5366917;32;34295;-67
2022/05/12 13:26:10;;;;;;;11.77;3.50;;;;;;;33.12;19.70;100323.38;5345612;32;36089;-70
2022/05/12 13:29:37;;;;;;;5.40;3.05;;;;;;;33.70;19.63;100325.50;5370570;32;35508;-70
2022/05/12 13:32:50;;;;;;;6.28;3.30;;;;;;;32.05;21.04;100326.78;5375717;32;32544;-64
2022/05/12 13:36:04;;;;;;;5.15;3.00;;;;;;;32.78;20.51;100321.66;5376157;32;44495;-65
2022/05/12 13:39:16;;;;;;;12.82;3.50;;;;;;;33.52;20.11;100308.94;5379970;32;34115;-67
2022/05/12 13:42:43;;;;;;;7.97;3.40;;;;;;;33.48;20.42;100318.59;5357211;32;35467;-76
2022/05/12 13:45:48;;;;;;;5.70;3.05;;;;;;;33.91;20.31;100322.53;5373412;32;35133;-75
2022/05/12 13:49:00;;;;;;;8.15;3.60;;;;;;;32.64;21.23;100325.37;5336767;32;44389;-75
2022/05/12 13:52:08;;;;;;;5.62;3.33;;;;;;;33.35;20.79;100314.78;5359795;32;34325;-68
2022/05/12 13:55:19;;;;;;;7.10;3.58;;;;;;;33.01;21.04;100298.66;5386790;32;35157;-88
2022/05/12 13:58:22;;;;;;;8.35;3.60;;;;;;;32.66;21.64;100306.97;5363396;32;44547;-69
2022/05/12 14:01:30;;;;;;;7.28;3.95;;;;;;;33.44;21.06;100311.91;5372182;32;34050;-66
2022/05/12 14:04:35;;;;;;;14.13;3.33;;;;;;;33.24;20.92;100314.59;5359819;32;35884;-77
2022/05/12 14:07:38;;;;;;;7.43;3.33;;;;;;;32.37;21.81;100312.72;5365120;32;34301;-76
2022/05/12 14:10:43;;;;;;;8.30;3.62;;;;;;;32.10;21.98;100314.47;5366251;32;34767;-77
2022/05/12 14:20:33;;;;;;;8.45;3.50;;;;;;;33.26;21.11;100313.34;5365400;32;34681;-68
2022/05/12 14:23:35;;;;;;;8.23;3.60;;;;;;;32.68;21.84;100304.87;5352796;32;35589;-67
2022/05/12 14:26:37;;;;;;;10.25;4.03;;;;;;;32.67;22.04;100303.19;5375247;32;34076;-66
2022/05/12 14:29:40;;;;;;;10.55;4.65;;;;;;;33.17;21.51;100295.53;5367124;32;35502;-74
2022/05/12 14:32:51;;;;;;;10.73;3.92;;;;;;;32.45;22.35;100294.34;5377519;32;34621;-66
2022/05/12 14:35:54;;;;;;;8.32;3.65;;;;;;;32.52;22.09;100284.31;5355857;32;46916;-74
2022/05/12 14:38:56;;;;;;;7.65;3.67;;;;;;;32.08;22.49;100292.94;5395259;32;34486;-75
2022/05/12 14:42:00;;;;;;;9.15;3.80;;;;;;;32.64;22.02;100284.56;5375718;32;34068;-75
2022/05/12 14:45:03;;;;;;;7.60;3.72;;;;;;;33.04;21.73;100287.34;5375543;32;33993;-74
2022/05/12 14:48:10;;;;;;;7.55;3.70;;;;;;;33.65;20.69;100284.41;5382823;32;34389;-66
2022/05/12 14:51:13;;;;;;;9.32;4.22;;;;;;;32.43;22.45;100279.28;5358860;32;35044;-68
2022/05/12 14:54:15;;;;;;;10.85;4.20;;;;;;;32.54;22.18;100281.41;5397185;32;34624;-74